sensor_id;sensor_type;location;lat;lon;timestamp;P1;durP1;ratioP1;P2;durP2;ratioP2
63782;SDS011;49925;52.522;5.732;2023-05-10T05:48:30;38.28;;;14.55;;
63782;SDS011;49925;52.522;5.732;2023-05-10T05:50:57;36.97;;;15.10;;
63782;SDS011;49925;52.522;5.732;2023-05-10T05:53:25;39.13;;;13.93;;
63782;SDS011;49925;52.522;5.732;2023-05-10T05:55:56;42.85;;;14.77;;
63782;SDS011;49925;52.522;5.732;2023-05-10T05:58:25;38.67;;;13.88;;
63782;SDS011;49925;52.522;5.732;2023-05-10T06:00:52;39.85;;;15.48;;
63782;SDS011;49925;52.522;5.732;2023-05-10T06:03:19;45.45;;;16.30;;
63782;SDS011;49925;52.522;5.732;2023-05-10T06:08:14;46.50;;;16.23;;
63782;SDS011;49925;52.522;5.732;2023-05-10T06:10:41;41.50;;;15.25;;
63782;SDS011;49925;52.522;5.732;2023-05-10T06:13:08;37.00;;;13.68;;
63782;SDS011;49925;52.522;5.732;2023-05-10T09:20:23;22.40;;;10.05;;
63782;SDS011;49925;52.522;5.732;2023-05-10T11:15:39;16.50;;;8.50;;
63782;SDS011;49925;52.522;5.732;2023-05-10T11:18:20;14.88;;;8.25;;
63782;SDS011;49925;52.522;5.732;2023-05-10T11:20:51;20.67;;;9.98;;
63782;SDS011;49925;52.522;5.732;2023-05-10T11:23:48;26.58;;;9.90;;
63782;SDS011;49925;52.522;5.732;2023-05-10T11:26:18;17.95;;;8.30;;
63782;SDS011;49925;52.522;5.732;2023-05-10T11:28:46;14.70;;;7.25;;
63782;SDS011;49925;52.522;5.732;2023-05-10T11:31:15;18.10;;;8.45;;
63782;SDS011;49925;52.522;5.732;2023-05-10T11:36:15;26.27;;;7.50;;
63782;SDS011;49925;52.522;5.732;2023-05-10T11:38:55;19.30;;;7.68;;
63782;SDS011;49925;52.522;5.732;2023-05-10T11:41:23;17.63;;;8.05;;
63782;SDS011;49925;52.522;5.732;2023-05-10T11:43:51;17.85;;;8.95;;
63782;SDS011;49925;52.522;5.732;2023-05-10T11:46:21;23.90;;;8.75;;
63782;SDS011;49925;52.522;5.732;2023-05-10T11:48:52;18.40;;;9.07;;
63782;SDS011;49925;52.522;5.732;2023-05-10T11:51:24;17.58;;;8.20;;
63782;SDS011;49925;52.522;5.732;2023-05-10T11:53:52;18.70;;;8.05;;
63782;SDS011;49925;52.522;5.732;2023-05-10T11:56:21;13.73;;;7.25;;
63782;SDS011;49925;52.522;5.732;2023-05-10T11:58:53;15.07;;;8.45;;
63782;SDS011;49925;52.522;5.732;2023-05-10T12:01:23;17.83;;;8.77;;
63782;SDS011;49925;52.522;5.732;2023-05-10T12:03:53;18.35;;;8.65;;
63782;SDS011;49925;52.522;5.732;2023-05-10T12:06:29;18.40;;;8.38;;
63782;SDS011;49925;52.522;5.732;2023-05-10T12:08:58;18.30;;;8.50;;
63782;SDS011;49925;52.522;5.732;2023-05-10T12:11:30;22.58;;;7.80;;
63782;SDS011;49925;52.522;5.732;2023-05-10T12:13:57;13.68;;;8.02;;
63782;SDS011;49925;52.522;5.732;2023-05-10T12:16:30;26.00;;;9.23;;
63782;SDS011;49925;52.522;5.732;2023-05-10T12:18:59;23.08;;;9.77;;
63782;SDS011;49925;52.522;5.732;2023-05-10T12:21:30;21.38;;;9.30;;
63782;SDS011;49925;52.522;5.732;2023-05-10T12:24:03;19.75;;;10.10;;
63782;SDS011;49925;52.522;5.732;2023-05-10T12:26:31;18.30;;;8.07;;
63782;SDS011;49925;52.522;5.732;2023-05-10T12:29:15;20.58;;;8.93;;
63782;SDS011;49925;52.522;5.732;2023-05-10T12:34:31;18.45;;;9.65;;
63782;SDS011;49925;52.522;5.732;2023-05-10T12:37:04;18.40;;;8.68;;
63782;SDS011;49925;52.522;5.732;2023-05-10T12:39:41;19.80;;;8.45;;
63782;SDS011;49925;52.522;5.732;2023-05-10T12:42:10;17.15;;;7.78;;
63782;SDS011;49925;52.522;5.732;2023-05-10T12:44:38;14.70;;;7.95;;
63782;SDS011;49925;52.522;5.732;2023-05-10T12:47:06;15.38;;;7.63;;
63782;SDS011;49925;52.522;5.732;2023-05-10T12:49:33;13.30;;;7.82;;
63782;SDS011;49925;52.522;5.732;2023-05-10T12:52:00;16.42;;;8.23;;
63782;SDS011;49925;52.522;5.732;2023-05-10T12:54:27;15.95;;;7.32;;
63782;SDS011;49925;52.522;5.732;2023-05-10T12:56:55;16.85;;;7.95;;
63782;SDS011;49925;52.522;5.732;2023-05-10T12:59:22;17.83;;;8.48;;
63782;SDS011;49925;52.522;5.732;2023-05-10T13:01:49;20.40;;;9.00;;
63782;SDS011;49925;52.522;5.732;2023-05-10T13:04:16;20.90;;;9.57;;
63782;SDS011;49925;52.522;5.732;2023-05-10T13:06:43;17.42;;;8.70;;
63782;SDS011;49925;52.522;5.732;2023-05-10T13:09:10;20.67;;;9.18;;
63782;SDS011;49925;52.522;5.732;2023-05-10T13:11:37;14.82;;;8.38;;
63782;SDS011;49925;52.522;5.732;2023-05-10T13:14:05;20.83;;;9.80;;
63782;SDS011;49925;52.522;5.732;2023-05-10T13:16:32;21.98;;;9.10;;
63782;SDS011;49925;52.522;5.732;2023-05-10T13:18:59;18.38;;;8.35;;
63782;SDS011;49925;52.522;5.732;2023-05-10T13:21:27;17.20;;;9.10;;
63782;SDS011;49925;52.522;5.732;2023-05-10T13:23:54;20.23;;;7.97;;
63782;SDS011;49925;52.522;5.732;2023-05-10T13:26:21;14.32;;;7.07;;
63782;SDS011;49925;52.522;5.732;2023-05-10T13:28:48;14.77;;;7.00;;
63782;SDS011;49925;52.522;5.732;2023-05-10T13:31:18;15.50;;;6.72;;
63782;SDS011;49925;52.522;5.732;2023-05-10T13:33:45;15.60;;;6.85;;
63782;SDS011;49925;52.522;5.732;2023-05-10T13:36:12;16.42;;;7.32;;
63782;SDS011;49925;52.522;5.732;2023-05-10T13:38:39;13.73;;;6.00;;
63782;SDS011;49925;52.522;5.732;2023-05-10T13:41:06;12.43;;;6.30;;
63782;SDS011;49925;52.522;5.732;2023-05-10T13:43:34;19.60;;;6.10;;
63782;SDS011;49925;52.522;5.732;2023-05-10T13:46:02;14.65;;;6.85;;
63782;SDS011;49925;52.522;5.732;2023-05-10T13:48:29;14.45;;;7.72;;
63782;SDS011;49925;52.522;5.732;2023-05-10T13:50:56;12.98;;;6.38;;
63782;SDS011;49925;52.522;5.732;2023-05-10T13:53:23;17.42;;;6.57;;
63782;SDS011;49925;52.522;5.732;2023-05-10T13:55:50;12.88;;;6.95;;
63782;SDS011;49925;52.522;5.732;2023-05-10T13:58:18;17.35;;;7.32;;
63782;SDS011;49925;52.522;5.732;2023-05-10T14:00:45;17.02;;;8.25;;
63782;SDS011;49925;52.522;5.732;2023-05-10T14:03:12;16.70;;;7.30;;
63782;SDS011;49925;52.522;5.732;2023-05-10T14:05:39;22.40;;;7.95;;
63782;SDS011;49925;52.522;5.732;2023-05-10T14:08:07;16.52;;;7.85;;
63782;SDS011;49925;52.522;5.732;2023-05-10T14:10:35;16.40;;;7.05;;
63782;SDS011;49925;52.522;5.732;2023-05-10T14:13:03;11.75;;;6.80;;
63782;SDS011;49925;52.522;5.732;2023-05-10T14:15:30;17.35;;;7.10;;
63782;SDS011;49925;52.522;5.732;2023-05-10T14:17:57;15.57;;;7.80;;
63782;SDS011;49925;52.522;5.732;2023-05-10T14:20:25;13.88;;;6.68;;
63782;SDS011;49925;52.522;5.732;2023-05-10T14:22:52;11.82;;;6.07;;
63782;SDS011;49925;52.522;5.732;2023-05-10T14:25:19;11.40;;;5.45;;
63782;SDS011;49925;52.522;5.732;2023-05-10T14:27:47;10.57;;;5.22;;
63782;SDS011;49925;52.522;5.732;2023-05-10T14:30:14;10.60;;;5.28;;
63782;SDS011;49925;52.522;5.732;2023-05-10T14:32:41;12.02;;;6.00;;
63782;SDS011;49925;52.522;5.732;2023-05-10T14:35:09;20.13;;;6.32;;
63782;SDS011;49925;52.522;5.732;2023-05-10T14:37:38;19.63;;;7.90;;
63782;SDS011;49925;52.522;5.732;2023-05-10T14:40:06;16.52;;;7.20;;
63782;SDS011;49925;52.522;5.732;2023-05-10T14:42:34;17.88;;;7.75;;
63782;SDS011;49925;52.522;5.732;2023-05-10T14:45:01;13.73;;;6.57;;
63782;SDS011;49925;52.522;5.732;2023-05-10T14:47:28;15.43;;;7.60;;
63782;SDS011;49925;52.522;5.732;2023-05-10T14:49:56;15.77;;;7.65;;
63782;SDS011;49925;52.522;5.732;2023-05-10T14:52:24;16.58;;;8.00;;
63782;SDS011;49925;52.522;5.732;2023-05-10T14:54:52;17.75;;;7.93;;
63782;SDS011;49925;52.522;5.732;2023-05-10T14:57:19;16.90;;;8.52;;
63782;SDS011;49925;52.522;5.732;2023-05-10T14:59:46;17.27;;;8.43;;
63782;SDS011;49925;52.522;5.732;2023-05-10T15:02:14;20.10;;;9.70;;
63782;SDS011;49925;52.522;5.732;2023-05-10T15:04:42;18.45;;;9.20;;
63782;SDS011;49925;52.522;5.732;2023-05-10T15:07:10;20.30;;;9.43;;
63782;SDS011;49925;52.522;5.732;2023-05-10T15:09:40;23.08;;;10.05;;
63782;SDS011;49925;52.522;5.732;2023-05-10T15:12:07;24.40;;;9.40;;
63782;SDS011;49925;52.522;5.732;2023-05-10T15:14:34;16.67;;;8.57;;
63782;SDS011;49925;52.522;5.732;2023-05-10T15:17:02;21.17;;;8.05;;
63782;SDS011;49925;52.522;5.732;2023-05-10T15:19:32;16.80;;;7.70;;
63782;SDS011;49925;52.522;5.732;2023-05-10T15:22:00;17.08;;;7.35;;
63782;SDS011;49925;52.522;5.732;2023-05-10T15:24:27;24.75;;;8.20;;
63782;SDS011;49925;52.522;5.732;2023-05-10T15:26:55;22.08;;;10.05;;
63782;SDS011;49925;52.522;5.732;2023-05-10T15:29:22;23.45;;;10.43;;
63782;SDS011;49925;52.522;5.732;2023-05-10T15:31:49;16.73;;;9.63;;
63782;SDS011;49925;52.522;5.732;2023-05-10T15:34:17;21.27;;;9.95;;
63782;SDS011;49925;52.522;5.732;2023-05-10T15:36:45;17.95;;;9.68;;
63782;SDS011;49925;52.522;5.732;2023-05-10T15:39:12;22.10;;;9.40;;
63782;SDS011;49925;52.522;5.732;2023-05-10T15:41:39;16.80;;;8.63;;
63782;SDS011;49925;52.522;5.732;2023-05-10T15:44:06;20.65;;;9.90;;
63782;SDS011;49925;52.522;5.732;2023-05-10T15:46:33;23.92;;;10.15;;
63782;SDS011;49925;52.522;5.732;2023-05-10T15:49:01;19.55;;;9.02;;
63782;SDS011;49925;52.522;5.732;2023-05-10T15:51:29;20.45;;;9.30;;
63782;SDS011;49925;52.522;5.732;2023-05-10T15:53:56;17.92;;;8.57;;
63782;SDS011;49925;52.522;5.732;2023-05-10T15:56:33;18.95;;;9.35;;
63782;SDS011;49925;52.522;5.732;2023-05-10T15:59:00;20.75;;;9.85;;
63782;SDS011;49925;52.522;5.732;2023-05-10T16:01:27;21.75;;;10.65;;
63782;SDS011;49925;52.522;5.732;2023-05-10T16:03:56;18.48;;;9.73;;
63782;SDS011;49925;52.522;5.732;2023-05-10T16:06:23;17.13;;;9.65;;
63782;SDS011;49925;52.522;5.732;2023-05-10T16:08:50;21.55;;;10.18;;
63782;SDS011;49925;52.522;5.732;2023-05-10T16:11:19;22.95;;;10.93;;
63782;SDS011;49925;52.522;5.732;2023-05-10T16:13:47;17.60;;;9.35;;
63782;SDS011;49925;52.522;5.732;2023-05-10T16:16:14;19.27;;;9.88;;
63782;SDS011;49925;52.522;5.732;2023-05-10T16:18:41;19.90;;;10.55;;
63782;SDS011;49925;52.522;5.732;2023-05-10T16:21:09;24.85;;;10.13;;
63782;SDS011;49925;52.522;5.732;2023-05-10T16:23:36;23.83;;;10.70;;
63782;SDS011;49925;52.522;5.732;2023-05-10T16:26:03;18.52;;;10.10;;
63782;SDS011;49925;52.522;5.732;2023-05-10T16:28:30;21.77;;;9.75;;
63782;SDS011;49925;52.522;5.732;2023-05-10T16:30:57;19.73;;;10.38;;
63782;SDS011;49925;52.522;5.732;2023-05-10T16:33:25;19.70;;;9.43;;
63782;SDS011;49925;52.522;5.732;2023-05-10T16:35:52;17.70;;;8.73;;
63782;SDS011;49925;52.522;5.732;2023-05-10T16:38:19;18.75;;;8.63;;
63782;SDS011;49925;52.522;5.732;2023-05-10T16:40:47;19.23;;;9.52;;
63782;SDS011;49925;52.522;5.732;2023-05-10T16:43:14;17.80;;;9.13;;
63782;SDS011;49925;52.522;5.732;2023-05-10T16:45:41;19.50;;;10.65;;
63782;SDS011;49925;52.522;5.732;2023-05-10T16:48:08;18.45;;;9.02;;
63782;SDS011;49925;52.522;5.732;2023-05-10T16:50:35;23.58;;;9.32;;
63782;SDS011;49925;52.522;5.732;2023-05-10T16:53:02;19.88;;;10.35;;
63782;SDS011;49925;52.522;5.732;2023-05-10T16:55:30;24.10;;;10.73;;
63782;SDS011;49925;52.522;5.732;2023-05-10T16:57:57;25.10;;;11.88;;
63782;SDS011;49925;52.522;5.732;2023-05-10T17:00:26;21.05;;;9.82;;
63782;SDS011;49925;52.522;5.732;2023-05-10T17:02:53;18.73;;;10.65;;
63782;SDS011;49925;52.522;5.732;2023-05-10T17:05:21;20.67;;;10.57;;
63782;SDS011;49925;52.522;5.732;2023-05-10T17:07:48;21.60;;;11.70;;
63782;SDS011;49925;52.522;5.732;2023-05-10T17:10:15;23.10;;;10.85;;
63782;SDS011;49925;52.522;5.732;2023-05-10T17:12:43;21.88;;;10.70;;
63782;SDS011;49925;52.522;5.732;2023-05-10T17:15:10;20.08;;;11.32;;
63782;SDS011;49925;52.522;5.732;2023-05-10T17:17:38;18.60;;;10.50;;
63782;SDS011;49925;52.522;5.732;2023-05-10T17:20:05;22.20;;;11.23;;
63782;SDS011;49925;52.522;5.732;2023-05-10T17:22:33;19.30;;;10.45;;
63782;SDS011;49925;52.522;5.732;2023-05-10T17:25:01;19.60;;;10.45;;
63782;SDS011;49925;52.522;5.732;2023-05-10T17:27:28;20.10;;;10.10;;
63782;SDS011;49925;52.522;5.732;2023-05-10T17:29:55;16.42;;;9.45;;
63782;SDS011;49925;52.522;5.732;2023-05-10T17:32:23;19.13;;;10.07;;
63782;SDS011;49925;52.522;5.732;2023-05-10T17:34:51;16.65;;;9.25;;
63782;SDS011;49925;52.522;5.732;2023-05-10T17:37:18;21.35;;;9.05;;
63782;SDS011;49925;52.522;5.732;2023-05-10T17:39:45;19.95;;;9.68;;
63782;SDS011;49925;52.522;5.732;2023-05-10T17:42:12;19.73;;;8.93;;
63782;SDS011;49925;52.522;5.732;2023-05-10T17:44:42;18.20;;;8.93;;
63782;SDS011;49925;52.522;5.732;2023-05-10T17:47:09;18.50;;;9.30;;
63782;SDS011;49925;52.522;5.732;2023-05-10T17:49:37;17.08;;;8.85;;
63782;SDS011;49925;52.522;5.732;2023-05-10T17:52:05;18.13;;;8.95;;
63782;SDS011;49925;52.522;5.732;2023-05-10T17:54:32;16.25;;;8.27;;
63782;SDS011;49925;52.522;5.732;2023-05-10T17:57:00;18.50;;;8.73;;
63782;SDS011;49925;52.522;5.732;2023-05-10T17:59:29;14.32;;;7.78;;
63782;SDS011;49925;52.522;5.732;2023-05-10T18:01:56;15.38;;;7.88;;
63782;SDS011;49925;52.522;5.732;2023-05-10T18:04:23;16.13;;;7.35;;
63782;SDS011;49925;52.522;5.732;2023-05-10T18:06:51;16.17;;;7.70;;
63782;SDS011;49925;52.522;5.732;2023-05-10T18:09:26;14.18;;;8.20;;
63782;SDS011;49925;52.522;5.732;2023-05-10T18:11:54;13.35;;;7.53;;
63782;SDS011;49925;52.522;5.732;2023-05-10T18:14:21;14.65;;;7.07;;
63782;SDS011;49925;52.522;5.732;2023-05-10T18:17:05;20.38;;;7.95;;
63782;SDS011;49925;52.522;5.732;2023-05-10T18:19:33;22.63;;;8.70;;
63782;SDS011;49925;52.522;5.732;2023-05-10T18:22:00;17.67;;;8.10;;
63782;SDS011;49925;52.522;5.732;2023-05-10T18:24:28;15.23;;;7.47;;
63782;SDS011;49925;52.522;5.732;2023-05-10T18:27:05;21.08;;;7.90;;
63782;SDS011;49925;52.522;5.732;2023-05-10T18:29:34;11.93;;;7.85;;
63782;SDS011;49925;52.522;5.732;2023-05-10T18:32:01;16.58;;;7.57;;
63782;SDS011;49925;52.522;5.732;2023-05-10T18:34:29;15.32;;;8.07;;
63782;SDS011;49925;52.522;5.732;2023-05-10T18:36:56;11.98;;;7.43;;
63782;SDS011;49925;52.522;5.732;2023-05-10T18:39:23;14.90;;;8.05;;
63782;SDS011;49925;52.522;5.732;2023-05-10T18:41:50;16.83;;;8.80;;
63782;SDS011;49925;52.522;5.732;2023-05-10T18:44:17;18.20;;;8.63;;
63782;SDS011;49925;52.522;5.732;2023-05-10T18:46:44;13.70;;;7.95;;
63782;SDS011;49925;52.522;5.732;2023-05-10T18:49:12;14.73;;;8.10;;
63782;SDS011;49925;52.522;5.732;2023-05-10T18:51:41;15.98;;;7.45;;
63782;SDS011;49925;52.522;5.732;2023-05-10T18:54:08;16.80;;;9.05;;
63782;SDS011;49925;52.522;5.732;2023-05-10T18:56:35;18.92;;;8.50;;
63782;SDS011;49925;52.522;5.732;2023-05-10T18:59:02;16.23;;;8.80;;
63782;SDS011;49925;52.522;5.732;2023-05-10T19:01:32;15.25;;;8.32;;
63782;SDS011;49925;52.522;5.732;2023-05-10T19:04:00;18.38;;;9.10;;
63782;SDS011;49925;52.522;5.732;2023-05-10T19:06:27;17.48;;;9.02;;
63782;SDS011;49925;52.522;5.732;2023-05-10T19:08:54;14.05;;;8.60;;
63782;SDS011;49925;52.522;5.732;2023-05-10T19:11:22;21.50;;;9.32;;
63782;SDS011;49925;52.522;5.732;2023-05-10T19:13:49;18.17;;;9.23;;
63782;SDS011;49925;52.522;5.732;2023-05-10T19:16:16;17.23;;;8.75;;
63782;SDS011;49925;52.522;5.732;2023-05-10T19:18:43;17.10;;;8.52;;
63782;SDS011;49925;52.522;5.732;2023-05-10T19:21:12;18.60;;;9.38;;
63782;SDS011;49925;52.522;5.732;2023-05-10T19:23:46;17.13;;;9.13;;
63782;SDS011;49925;52.522;5.732;2023-05-10T19:26:14;16.90;;;9.35;;
63782;SDS011;49925;52.522;5.732;2023-05-10T19:28:41;20.75;;;10.25;;
63782;SDS011;49925;52.522;5.732;2023-05-10T19:31:09;17.75;;;8.73;;
63782;SDS011;49925;52.522;5.732;2023-05-10T19:33:36;20.38;;;8.90;;
63782;SDS011;49925;52.522;5.732;2023-05-10T19:36:03;16.75;;;9.32;;
63782;SDS011;49925;52.522;5.732;2023-05-10T19:38:31;15.55;;;8.90;;
63782;SDS011;49925;52.522;5.732;2023-05-10T19:40:59;20.15;;;9.20;;
63782;SDS011;49925;52.522;5.732;2023-05-10T19:43:27;17.25;;;10.35;;
